createdAt,value
2018-04-07T00:01:53.560Z,9.50
2018-04-07T00:04:21.024Z,9.57
2018-04-07T00:06:48.465Z,9.90
2018-04-07T00:09:15.908Z,9.45
2018-04-07T00:11:43.354Z,9.80
2018-04-07T00:14:11.567Z,10.27
2018-04-07T00:16:39.008Z,10.20
2018-04-07T00:19:06.456Z,7.93
2018-04-07T00:21:33.901Z,8.20
2018-04-07T00:24:01.368Z,8.17
2018-04-07T00:26:29.573Z,8.63
2018-04-07T00:28:57.781Z,8.30
2018-04-07T00:31:25.220Z,9.07
2018-04-07T00:33:52.668Z,9.30
2018-04-07T00:36:20.103Z,9.20
2018-04-07T00:38:48.310Z,9.60
2018-04-07T00:41:16.512Z,9.70
2018-04-07T00:43:44.728Z,9.30
2018-04-07T00:46:12.165Z,8.60
2018-04-07T00:48:39.617Z,8.90
2018-04-07T00:51:07.079Z,9.88
2018-04-07T00:53:34.504Z,8.70
2018-04-07T00:56:01.948Z,9.30
2018-04-07T00:58:29.388Z,8.90
2018-04-07T01:00:57.593Z,9.48
2018-04-07T01:03:25.808Z,9.50
2018-04-07T01:05:53.243Z,9.40
2018-04-07T01:08:20.704Z,9.27
2018-04-07T01:10:48.144Z,10.00
2018-04-07T01:13:15.584Z,8.23
2018-04-07T01:15:43.019Z,8.90
2018-04-07T01:18:10.481Z,9.48
2018-04-07T01:20:37.922Z,9.25
2018-04-07T01:23:05.367Z,9.00
2018-04-07T01:25:32.818Z,9.00
2018-04-07T01:28:01.036Z,9.07
2018-04-07T01:30:28.507Z,8.85
2018-04-07T01:32:55.943Z,9.30
2018-04-07T01:35:23.387Z,9.40
2018-04-07T01:37:50.844Z,9.60
2018-04-07T01:40:18.285Z,9.57
2018-04-07T01:42:45.740Z,10.02
2018-04-07T01:45:13.171Z,9.30
2018-04-07T01:47:41.387Z,9.70
2018-04-07T01:50:09.583Z,10.10
2018-04-07T01:52:37.788Z,9.48
2018-04-07T01:55:05.214Z,9.95
2018-04-07T01:57:32.667Z,9.70
2018-04-07T02:00:00.120Z,9.80
2018-04-07T02:02:28.323Z,10.57
2018-04-07T02:04:55.805Z,10.13
2018-04-07T02:07:23.211Z,10.32
2018-04-07T02:09:50.663Z,10.75
2018-04-07T02:12:18.858Z,11.00
2018-04-07T02:14:47.075Z,10.10
2018-04-07T02:17:14.516Z,10.75
2018-04-07T02:19:41.960Z,10.38
2018-04-07T02:22:09.403Z,10.60
2018-04-07T02:24:37.611Z,11.27
2018-04-07T02:27:05.048Z,10.25
2018-04-07T02:29:32.496Z,10.30
2018-04-07T02:31:59.949Z,11.12
2018-04-07T02:34:27.404Z,11.48
2018-04-07T02:36:54.840Z,11.00
2018-04-07T02:39:22.300Z,10.90
2018-04-07T02:41:49.750Z,11.48
2018-04-07T02:44:17.204Z,11.63
2018-04-07T02:46:44.644Z,10.90
2018-04-07T02:49:12.089Z,11.23
2018-04-07T02:51:39.520Z,12.00
2018-04-07T02:54:06.963Z,11.80
2018-04-07T02:56:35.183Z,11.60
2018-04-07T02:59:02.626Z,12.48
2018-04-07T03:01:30.064Z,11.70
2018-04-07T03:03:57.511Z,12.10
2018-04-07T03:06:24.973Z,11.73
2018-04-07T03:08:53.197Z,12.25
2018-04-07T03:11:20.640Z,11.93
2018-04-07T03:13:48.076Z,12.90
2018-04-07T03:16:15.519Z,12.50
2018-04-07T03:18:43.744Z,12.32
2018-04-07T03:21:11.175Z,12.60
2018-04-07T03:23:38.620Z,11.90
2018-04-07T03:26:06.063Z,12.37
2018-04-07T03:28:34.282Z,12.25
2018-04-07T03:31:01.717Z,12.93
2018-04-07T03:33:29.160Z,11.57
2018-04-07T03:35:56.611Z,11.43
2018-04-07T03:38:24.051Z,12.45
2018-04-07T03:40:51.493Z,12.40
2018-04-07T03:43:18.935Z,12.40
2018-04-07T03:45:47.150Z,12.88
2018-04-07T03:48:15.376Z,12.73
2018-04-07T03:50:42.811Z,12.05
2018-04-07T03:53:10.243Z,12.37
2018-04-07T03:55:37.683Z,11.90
2018-04-07T03:58:05.893Z,12.55
2018-04-07T04:00:34.106Z,10.00
2018-04-07T04:03:01.574Z,10.40
2018-04-07T04:05:29.782Z,11.07
2018-04-07T04:07:57.222Z,9.83
2018-04-07T04:10:24.673Z,10.07
2018-04-07T04:12:52.114Z,9.27
2018-04-07T04:15:19.555Z,10.37
2018-04-07T04:17:46.983Z,8.90
2018-04-07T04:20:14.436Z,8.17
2018-04-07T04:22:41.867Z,9.80
2018-04-07T04:25:09.315Z,10.03
2018-04-07T04:27:37.516Z,9.23
2018-04-07T04:30:05.719Z,10.60
2018-04-07T04:32:33.164Z,9.97
2018-04-07T04:35:00.612Z,9.53
2018-04-07T04:37:28.055Z,9.30
2018-04-07T04:39:55.516Z,12.75
2018-04-07T04:42:23.723Z,13.45
2018-04-07T04:44:51.940Z,12.90
2018-04-07T04:47:19.376Z,12.10
2018-04-07T04:49:46.823Z,12.00
2018-04-07T04:52:14.259Z,12.07
2018-04-07T04:54:42.490Z,11.20
2018-04-07T04:57:09.915Z,11.57
2018-04-07T04:59:37.367Z,12.10
2018-04-07T05:02:04.803Z,11.18
2018-04-07T05:04:33.012Z,11.85
2018-04-07T05:07:01.217Z,12.20
2018-04-07T05:09:28.672Z,11.00
2018-04-07T05:11:56.880Z,12.60
2018-04-07T05:14:25.094Z,11.68
2018-04-07T05:16:52.536Z,11.75
2018-04-07T05:19:19.975Z,11.32
2018-04-07T05:21:47.432Z,12.30
2018-04-07T05:24:15.644Z,11.00
2018-04-07T05:26:43.096Z,11.75
2018-04-07T05:29:10.539Z,12.18
2018-04-07T05:31:37.981Z,12.90
2018-04-07T05:34:05.435Z,11.30
2018-04-07T05:36:33.652Z,12.93
2018-04-07T05:39:01.135Z,11.70
2018-04-07T05:41:28.555Z,11.93
2018-04-07T05:43:56.017Z,12.27
2018-04-07T05:46:23.440Z,11.90
2018-04-07T05:48:50.903Z,12.30
2018-04-07T05:51:18.339Z,12.15
2018-04-07T05:53:45.777Z,11.82
2018-04-07T05:56:13.223Z,12.50
2018-04-07T05:58:40.662Z,12.60
2018-04-07T06:01:08.872Z,11.98
2018-04-07T06:03:37.075Z,10.60
2018-04-07T06:06:05.305Z,12.63
2018-04-07T06:08:32.738Z,12.73
2018-04-07T06:11:00.180Z,12.20
2018-04-07T06:13:27.632Z,10.23
2018-04-07T06:15:55.076Z,10.13
2018-04-07T06:18:22.530Z,10.20
2018-04-07T06:20:49.944Z,9.70
2018-04-07T06:23:18.147Z,8.60
2018-04-07T07:14:50.064Z,11.30
2018-04-07T07:17:17.503Z,12.13
2018-04-07T07:19:44.956Z,12.35
2018-04-07T07:22:12.401Z,11.32
2018-04-07T07:24:39.852Z,11.95
2018-04-07T07:27:07.278Z,12.55
2018-04-07T07:29:34.737Z,11.20
2018-04-07T07:32:02.207Z,11.88
2018-04-07T07:34:29.613Z,11.10
2018-04-07T07:36:57.077Z,12.10
2018-04-07T07:39:24.512Z,11.10
2018-04-07T07:41:51.975Z,11.43
2018-04-07T07:44:19.414Z,10.40
2018-04-07T07:46:46.907Z,11.20
2018-04-07T07:49:14.307Z,10.75
2018-04-07T07:51:41.751Z,10.90
2018-04-07T07:54:09.975Z,11.00
2018-04-07T07:56:37.419Z,11.15
2018-04-07T07:59:05.623Z,11.38
2018-04-07T08:01:33.081Z,10.65
2018-04-07T08:04:00.514Z,10.90
2018-04-07T08:06:27.955Z,10.60
2018-04-07T08:08:56.158Z,11.10
2018-04-07T08:11:24.369Z,10.70
2018-04-07T08:13:52.572Z,10.77
2018-04-07T08:16:20.023Z,10.30
2018-04-07T08:18:47.456Z,9.90
2018-04-07T08:21:14.912Z,10.70
2018-04-07T08:23:43.104Z,10.20
2018-04-07T08:26:11.361Z,10.00
2018-04-07T08:28:38.786Z,10.45
2018-04-07T08:31:06.998Z,10.77
2018-04-07T08:33:34.440Z,10.50
2018-04-07T08:36:01.903Z,10.48
2018-04-07T08:38:29.428Z,10.37
2018-04-07T08:40:57.636Z,10.27
2018-04-07T08:43:25.099Z,10.43
2018-04-07T08:45:53.315Z,10.70
2018-04-07T08:48:20.751Z,10.30
2018-04-07T08:50:48.195Z,10.02
2018-04-07T08:53:15.639Z,11.12
2018-04-07T08:55:43.868Z,10.80
2018-04-07T08:58:11.310Z,10.98
2018-04-07T09:00:38.751Z,10.52
2018-04-07T09:03:06.186Z,11.25
2018-04-07T09:05:34.399Z,9.90
2018-04-07T09:08:01.857Z,9.90
2018-04-07T09:10:30.072Z,9.80
2018-04-07T09:12:57.520Z,10.35
2018-04-07T09:15:24.963Z,10.88
2018-04-07T09:17:52.421Z,11.10
2018-04-07T09:20:20.623Z,10.80
2018-04-07T09:22:48.068Z,10.47
2018-04-07T09:25:15.519Z,10.98
2018-04-07T09:27:42.977Z,10.77
2018-04-07T09:30:10.418Z,9.65
2018-04-07T09:32:37.865Z,10.40
2018-04-07T09:35:05.304Z,10.20
2018-04-07T09:37:32.759Z,10.63
2018-04-07T09:40:00.979Z,10.55
2018-04-07T09:42:28.432Z,10.32
2018-04-07T09:44:55.868Z,10.48
2018-04-07T09:47:23.315Z,9.48
2018-04-07T09:49:51.517Z,9.97
2018-04-07T09:52:18.955Z,9.40
2018-04-07T09:54:46.395Z,9.70
2018-04-07T09:57:13.839Z,10.40
2018-04-07T09:59:41.278Z,9.00
2018-04-07T10:02:08.735Z,9.70
2018-04-07T10:04:36.192Z,9.00
2018-04-07T10:07:04.403Z,9.40
2018-04-07T10:09:31.874Z,9.40
2018-04-07T10:12:00.071Z,10.10
2018-04-07T10:14:27.514Z,9.37
2018-04-07T10:16:54.971Z,9.47
2018-04-07T10:19:22.403Z,9.85
2018-04-07T10:21:50.620Z,9.73
2018-04-07T10:24:18.823Z,9.50
2018-04-07T10:26:46.279Z,9.32
2018-04-07T10:29:14.537Z,9.23
2018-04-07T10:31:42.712Z,9.60
2018-04-07T10:34:10.160Z,8.73
2018-04-07T10:36:38.388Z,9.95
2018-04-07T10:39:05.844Z,9.20
2018-04-07T10:41:34.060Z,9.18
2018-04-07T10:44:01.495Z,8.95
2018-04-07T10:46:28.944Z,9.45
2018-04-07T10:48:56.369Z,8.73
2018-04-07T10:51:23.812Z,8.53
2018-04-07T10:53:51.264Z,8.00
2018-04-07T10:56:18.715Z,8.60
2018-04-07T10:58:46.159Z,8.40
2018-04-07T11:01:13.608Z,9.90
2018-04-07T11:03:41.051Z,9.23
2018-04-07T11:06:08.544Z,7.63
2018-04-07T11:08:35.930Z,7.90
2018-04-07T11:11:03.367Z,8.67
2018-04-07T11:13:30.804Z,7.70
2018-04-07T11:15:59.019Z,8.10
2018-04-07T11:18:26.454Z,8.30
2018-04-07T11:20:53.900Z,8.97
2018-04-07T11:23:21.336Z,8.23
2018-04-07T11:25:48.772Z,7.30
2018-04-07T11:28:16.224Z,8.50
2018-04-07T11:30:43.663Z,7.27
2018-04-07T11:33:11.123Z,8.00
2018-04-07T11:35:38.555Z,6.70
2018-04-07T11:38:06.000Z,7.57
2018-04-07T11:40:33.440Z,7.00
2018-04-07T11:43:00.892Z,8.30
2018-04-07T11:45:29.088Z,6.23
2018-04-07T11:47:57.309Z,7.00
2018-04-07T11:50:24.739Z,7.60
2018-04-07T11:52:52.183Z,8.60
2018-04-07T11:55:19.623Z,8.23
2018-04-07T11:57:47.831Z,8.00
2018-04-07T12:00:15.267Z,7.03
2018-04-07T12:02:42.729Z,7.50
2018-04-07T12:05:10.160Z,7.75
2018-04-07T12:07:38.365Z,7.20
2018-04-07T12:10:06.583Z,7.00
2018-04-07T12:12:34.029Z,6.40
2018-04-07T12:15:01.463Z,6.20
2018-04-07T12:17:28.898Z,7.27
2018-04-07T12:19:57.104Z,6.90
2018-04-07T12:22:25.333Z,7.23
2018-04-07T12:24:52.771Z,7.00
2018-04-07T12:27:20.988Z,6.90
2018-04-07T12:29:49.191Z,7.43
2018-04-07T12:32:16.650Z,7.43
2018-04-07T12:34:44.081Z,7.73
2018-04-07T12:37:11.519Z,7.33
2018-04-07T12:39:39.719Z,7.03
2018-04-07T12:42:07.936Z,7.70
2018-04-07T12:44:35.381Z,7.67
2018-04-07T12:47:02.875Z,6.93
2018-04-07T12:49:31.075Z,8.23
2018-04-07T12:51:59.290Z,7.87
2018-04-07T12:54:26.722Z,8.17
2018-04-07T12:59:21.945Z,7.53
2018-04-07T13:01:49.383Z,7.95
2018-04-07T13:04:16.820Z,7.63
2018-04-07T13:06:44.285Z,7.93
2018-04-07T13:09:11.732Z,7.40
2018-04-07T13:11:39.180Z,7.00
2018-04-07T13:14:06.619Z,7.27
2018-04-07T13:16:34.071Z,8.67
2018-04-07T13:19:01.512Z,6.93
2018-04-07T13:21:28.956Z,7.53
2018-04-07T13:23:57.161Z,7.93
2018-04-07T13:26:24.602Z,7.00
2018-04-07T13:28:52.044Z,7.43
2018-04-07T13:31:19.467Z,7.40
2018-04-07T13:33:46.915Z,7.30
2018-04-07T13:36:14.354Z,6.87
2018-04-07T13:38:42.565Z,7.07
2018-04-07T13:41:10.003Z,7.60
2018-04-07T13:43:37.446Z,7.37
2018-04-07T13:46:04.896Z,5.90
2018-04-07T13:48:33.103Z,5.43
2018-04-07T13:51:00.539Z,7.77
2018-04-07T13:53:27.986Z,7.57
2018-04-07T13:55:55.427Z,6.37
2018-04-07T13:58:23.632Z,6.70
2018-04-07T14:00:51.840Z,7.17
2018-04-07T14:03:20.043Z,6.80
2018-04-07T14:05:47.470Z,7.20
2018-04-07T14:08:14.920Z,7.53
2018-04-07T14:10:42.397Z,4.97
2018-04-07T14:13:09.803Z,5.73
2018-04-07T14:15:37.230Z,7.10
2018-04-07T14:18:05.440Z,8.10
2018-04-07T14:20:32.891Z,7.37
2018-04-07T14:23:00.327Z,6.30
2018-04-07T14:25:27.763Z,6.97
2018-04-07T14:27:55.973Z,7.00
2018-04-07T14:30:24.176Z,7.20
2018-04-07T14:32:52.389Z,7.53
2018-04-07T14:35:19.818Z,6.93
2018-04-07T14:37:47.274Z,7.50
2018-04-07T14:40:14.711Z,7.30
2018-04-07T14:42:42.919Z,6.80
2018-04-07T14:45:10.359Z,6.57
2018-04-07T14:47:37.800Z,6.50
2018-04-07T14:50:05.247Z,7.70
2018-04-07T14:52:33.464Z,6.30
2018-04-07T14:55:00.908Z,7.03
2018-04-07T14:57:28.347Z,6.40
2018-04-07T14:59:55.775Z,6.80
2018-04-07T15:02:23.211Z,6.87
2018-04-07T15:04:50.642Z,6.33
2018-04-07T15:07:18.851Z,6.10
2018-04-07T15:09:47.119Z,7.60
2018-04-07T15:12:14.559Z,6.97
2018-04-07T15:14:41.994Z,5.93
2018-04-07T15:17:10.210Z,6.22
2018-04-07T15:19:38.406Z,6.77
2018-04-07T15:22:06.610Z,7.50
2018-04-07T15:24:34.824Z,6.55
2018-04-07T15:27:02.255Z,7.10
2018-04-07T15:29:29.691Z,6.60
2018-04-07T15:31:57.149Z,6.50
2018-04-07T15:34:25.366Z,6.70
2018-04-07T15:36:52.802Z,7.43
2018-04-07T15:39:20.243Z,8.00
2018-04-07T15:41:47.696Z,6.93
2018-04-07T15:44:15.154Z,7.18
2018-04-07T15:46:42.594Z,7.35
2018-04-07T15:49:10.046Z,8.00
2018-04-07T15:51:38.268Z,9.02
2018-04-07T15:54:05.723Z,8.40
2018-04-07T15:56:33.184Z,7.80
2018-04-07T15:59:00.617Z,8.38
2018-04-07T16:01:28.060Z,9.30
2018-04-07T16:03:56.272Z,9.30
2018-04-07T16:06:23.719Z,9.90
2018-04-07T16:08:51.164Z,9.57
2018-04-07T16:11:18.623Z,9.33
2018-04-07T16:13:46.083Z,9.80
2018-04-07T16:16:14.287Z,9.13
2018-04-07T16:18:41.736Z,9.50
2018-04-07T16:21:09.170Z,9.52
2018-04-07T16:23:36.627Z,8.33
2018-04-07T16:26:04.058Z,7.50
2018-04-07T16:28:31.501Z,8.30
2018-04-07T16:30:58.937Z,8.03
2018-04-07T16:33:26.382Z,8.30
2018-04-07T16:35:53.824Z,8.77
2018-04-07T16:38:21.272Z,8.43
2018-04-07T16:40:48.702Z,8.73
2018-04-07T16:43:16.148Z,8.53
2018-04-07T16:45:43.593Z,7.90
2018-04-07T17:34:49.323Z,6.90
2018-04-07T17:37:16.780Z,7.47
2018-04-07T17:39:44.232Z,7.50
2018-04-07T17:42:12.437Z,6.47
2018-04-07T17:44:40.640Z,5.50
2018-04-07T17:47:08.836Z,4.70
2018-04-07T17:49:43.732Z,5.80
2018-04-07T17:52:05.250Z,5.90
2018-04-07T17:54:32.692Z,6.10
2018-04-07T17:57:00.147Z,6.33
2018-04-07T17:59:27.583Z,5.80
2018-04-07T18:01:55.036Z,5.70
2018-04-07T18:04:22.469Z,6.05
2018-04-07T18:06:49.911Z,6.95
2018-04-07T18:09:17.348Z,6.23
2018-04-07T18:11:44.790Z,6.90
2018-04-07T18:14:12.223Z,11.60
2018-04-07T18:16:39.688Z,8.90
2018-04-07T18:19:07.120Z,7.70
2018-04-07T18:21:35.328Z,7.22
2018-04-07T18:24:02.763Z,6.53
2018-04-07T18:26:30.208Z,6.63
2018-04-07T18:28:57.644Z,8.27
2018-04-07T18:31:25.098Z,6.70
2018-04-07T18:33:52.544Z,6.10
2018-04-07T18:36:19.983Z,5.70
2018-04-07T18:38:47.415Z,5.40
2018-04-07T18:41:14.859Z,6.00
2018-04-07T18:43:43.051Z,5.87
2018-04-07T18:46:11.260Z,6.22
2018-04-07T18:48:39.476Z,7.90
2018-04-07T18:51:06.923Z,7.57
2018-04-07T18:53:34.367Z,7.15
2018-04-07T18:56:01.814Z,8.07
2018-04-07T18:58:29.251Z,10.07
2018-04-07T19:00:56.701Z,9.33
2018-04-07T19:03:24.135Z,11.45
2018-04-07T19:05:52.356Z,17.10
2018-04-07T19:08:19.795Z,17.70
2018-04-07T19:10:47.260Z,13.60
2018-04-07T19:13:14.703Z,14.17
2018-04-07T19:15:42.175Z,16.60
2018-04-07T19:18:10.374Z,15.73
2018-04-07T19:20:37.828Z,15.43
2018-04-07T19:23:05.266Z,13.27
2018-04-07T19:25:32.715Z,11.38
2018-04-07T19:28:00.151Z,9.80
2018-04-07T19:30:27.603Z,9.07
2018-04-07T19:32:55.053Z,9.20
2018-04-07T19:35:23.266Z,10.30
2018-04-07T19:37:50.703Z,10.40
2018-04-07T19:40:18.151Z,8.75
2018-04-07T19:42:45.587Z,8.07
2018-04-07T19:45:13.795Z,7.85
2018-04-07T19:47:42.000Z,8.65
2018-04-07T19:50:09.439Z,10.43
2018-04-07T19:52:36.893Z,13.27
2018-04-07T19:55:04.340Z,11.70
2018-04-07T19:57:31.796Z,11.93
2018-04-07T20:00:00.012Z,11.27
2018-04-07T20:02:28.232Z,12.60
2018-04-07T20:04:55.663Z,15.17
2018-04-07T20:07:23.107Z,17.83
2018-04-07T20:09:50.547Z,15.20
2018-04-07T20:12:18.759Z,13.93
2018-04-07T20:14:46.204Z,15.53
2018-04-07T20:17:13.656Z,17.33
2018-04-07T20:19:41.090Z,17.53
2018-04-07T20:22:09.295Z,17.00
2018-04-07T20:24:37.494Z,22.27
2018-04-07T20:27:04.948Z,34.27
2018-04-07T20:29:32.383Z,38.17
2018-04-07T20:31:59.869Z,30.33
2018-04-07T20:34:27.284Z,22.60
2018-04-07T20:36:54.724Z,23.60
2018-04-07T20:39:22.155Z,32.00
2018-04-07T20:41:49.602Z,28.97
2018-04-07T20:44:28.983Z,29.70
2018-04-07T20:46:56.430Z,35.60
2018-04-07T20:49:23.862Z,34.37
2018-04-07T20:51:52.075Z,28.50
2018-04-07T20:54:20.271Z,21.13
2018-04-07T20:56:48.475Z,18.50
2018-04-07T20:59:16.678Z,17.33
2018-04-07T21:01:44.115Z,15.40
2018-04-07T21:04:11.559Z,12.87
2018-04-07T21:06:38.995Z,12.50
2018-04-07T21:09:06.423Z,11.97
2018-04-07T21:11:33.862Z,10.10
2018-04-07T21:14:02.063Z,10.90
2018-04-07T21:16:30.280Z,9.07
2018-04-07T21:18:57.723Z,10.10
2018-04-07T21:21:25.163Z,10.10
2018-04-07T21:23:52.586Z,9.07
2018-04-07T21:26:20.040Z,16.23
2018-04-07T21:28:47.477Z,20.73
2018-04-07T21:33:42.675Z,24.10
2018-04-07T21:36:10.110Z,20.63
2018-04-07T21:38:37.552Z,15.97
2018-04-07T21:41:05.012Z,15.33
2018-04-07T21:43:32.426Z,12.50
2018-04-07T21:45:59.870Z,11.63
2018-04-07T21:48:27.303Z,9.80
2018-04-07T21:50:54.739Z,10.33
2018-04-07T21:53:22.188Z,7.77
2018-04-07T21:55:49.621Z,8.17
2018-04-07T21:58:17.079Z,8.60
2018-04-07T22:00:44.507Z,8.13
2018-04-07T22:03:11.944Z,8.80
2018-04-07T22:05:39.401Z,8.70
2018-04-07T22:08:07.603Z,8.85
2018-04-07T22:10:35.051Z,9.05
2018-04-07T22:13:02.503Z,12.20
2018-04-07T22:15:29.938Z,12.13
2018-04-07T22:17:57.378Z,10.65
2018-04-07T22:20:24.832Z,10.23
2018-04-07T22:22:52.283Z,12.15
2018-04-07T22:25:19.728Z,12.80
2018-04-07T22:27:47.182Z,14.18
2018-04-07T22:30:14.670Z,12.18
2018-04-07T22:32:42.073Z,12.93
2018-04-07T22:35:09.509Z,11.82
2018-04-07T22:37:36.970Z,10.50
2018-04-07T22:40:04.411Z,9.85
2018-04-07T22:42:31.850Z,10.00
2018-04-07T22:44:59.290Z,10.70
2018-04-07T22:47:27.496Z,9.88
2018-04-07T22:49:55.723Z,10.07
2018-04-07T22:52:23.171Z,9.27
2018-04-07T22:54:51.384Z,10.07
2018-04-07T22:57:18.835Z,10.30
2018-04-07T22:59:46.271Z,9.25
2018-04-07T23:02:13.707Z,9.67
2018-04-07T23:04:41.168Z,9.55
2018-04-07T23:07:08.612Z,9.55
2018-04-07T23:09:36.057Z,9.63
2018-04-07T23:12:03.492Z,9.48
2018-04-07T23:14:30.941Z,8.88
2018-04-07T23:16:58.388Z,8.13
2018-04-07T23:19:25.810Z,7.93
2018-04-07T23:21:53.244Z,8.30
2018-04-07T23:26:47.680Z,8.70
2018-04-07T23:29:15.111Z,7.80
2018-04-07T23:31:42.555Z,8.73
2018-04-07T23:34:09.989Z,8.23
2018-04-07T23:36:37.415Z,8.40
2018-04-07T23:39:04.867Z,8.68
2018-04-07T23:41:32.304Z,8.50
2018-04-07T23:43:59.743Z,8.25
2018-04-07T23:46:27.176Z,8.43
2018-04-07T23:48:54.623Z,8.02
2018-04-07T23:51:22.058Z,8.60
2018-04-07T23:53:49.495Z,8.43
2018-04-07T23:56:17.688Z,7.80
2018-04-07T23:58:45.130Z,8.10
